East Willows Rd (358) Station Data

Red Flag Warning: No
Fire Weather Zone: 250
SDGE Region: Eastern
Lat/Lon: 32.837/-116.682

Observations

Time Wind Speed/Gust Temp(F) RH Fuel Moist Fuel Temp(F) Dewpt(F) Tmax(F) Tmin(F) Accum Precip 10-min Precip SL Press(mb)
2/27 11:40pm 260 8 G 16 46° 100% - - 46° 49.1° 43.4° - - -
2/27 11:20pm 249 12 G 22 47° 100% - - 47° 49.1° 43.4° - - -
2/27 11:10pm 211 14 G 24 47° 100% - - 47° 49.1° 43.4° - - -
2/27 11:00pm 216 13 G 21 46° 100% - - 46° 49.1° 43.4° - - -
2/27 10:50pm 223 18 G 30 46° 100% - - 46° 49.1° 43.4° - - -
2/27 10:40pm 240 12 G 24 47° 100% - - 47° 49.1° 43.4° - - -
2/27 10:30pm 238 13 G 25 47° 100% - - 47° 49.1° 43.4° - - -
2/27 10:20pm 236 10 G 17 47° 100% - - 47° 49.1° 43.4° - - -
2/27 10:10pm 235 9 G 18 47° 100% - - 47° 49.1° 43.4° - - -
2/27 9:50pm 200 7 G 12 47° 100% - - 47° 49.1° 43.4° - - -
2/27 9:40pm 190 5 G 9 47° 100% - - 47° 49.1° 43.4° - - -
2/27 9:30pm 208 8 G 14 47° 100% - - 47° 49.1° 43.4° - - -
2/27 9:10pm 213 11 G 18 47° 100% - - 47° 49.1° 43.4° - - -
2/27 9:00pm 209 15 G 21 47° 100% - - 47° 49.1° 43.4° - - -
2/27 8:50pm 198 15 G 26 47° 100% - - 47° 49.1° 43.4° - - -
2/27 8:40pm 200 14 G 26 47° 100% - - 47° 49.1° 43.4° - - -
2/27 8:30pm 188 11 G 19 47° 100% - - 47° 49.1° 43.4° - - -
2/27 8:20pm 185 14 G 27 47° 100% - - 47° 49.1° 43.4° - - -
2/27 8:10pm 179 15 G 29 47° 100% - - 47° 49.1° 43.4° - - -
2/27 8:00pm 157 13 G 27 47° 100% - - 47° 49.1° 43.4° - - -
2/27 7:50pm 174 12 G 23 47° 100% - - 47° 49.1° 43.4° - - -
2/27 7:40pm 150 12 G 22 46° 100% - - 46° 49.1° 43.4° - - -
2/27 7:30pm 152 11 G 16 46° 100% - - 46° 49.1° 43.4° - - -
2/27 7:20pm 150 11 G 17 46° 100% - - 46° 49.1° 43.4° - - -
2/27 7:10pm 148 10 G 16 46° 100% - - 46° 49.1° 43.4° - - -
2/27 7:00pm 151 9 G 14 46° 100% - - 46° 49.1° 43.4° - - -
2/27 6:50pm 150 9 G 16 46° 100% - - 46° 49.1° 43.4° - - -
2/27 6:40pm 151 11 G 17 46° 100% - - 46° 49.1° 43.4° - - -
2/27 6:30pm 151 10 G 17 46° 100% - - 46° 49.1° 43.4° - - -
2/27 6:20pm 159 11 G 19 47° 100% - - 47° 49.1° 43.4° - - -
2/27 6:10pm 171 10 G 20 47° 100% - - 47° 49.1° 43.4° - - -
2/27 6:00pm 173 10 G 19 47° 100% - - 47° 49.1° 43.4° - - -
2/27 5:40pm 184 12 G 18 47° 100% - - 47° 49.1° 43.4° - - -
2/27 5:30pm 183 7 G 13 47° 100% - - 47° 49.1° 43.4° - - -
2/27 5:20pm 192 7 G 12 47° 100% - - 47° 49.1° 43.4° - - -
2/27 5:10pm 212 9 G 14 47° 100% - - 47° 49.1° 43.4° - - -
2/27 5:00pm 204 10 G 17 47° 100% - - 47° 49.1° 43.4° - - -
2/27 4:50pm 185 10 G 17 48° 100% - - 48° 49.1° 43.4° - - -
2/27 4:40pm 169 9 G 19 48° 100% - - 48° 49.1° 43.4° - - -
2/27 4:30pm 162 11 G 20 48° 100% - - 48° 49.1° 43.4° - - -
2/27 4:20pm 174 10 G 21 48° 100% - - 48° 49.1° 43.4° - - -
2/27 4:10pm 158 11 G 22 48° 100% - - 48° 49.1° 43.4° - - -
2/27 4:00pm 173 11 G 17 48° 100% - - 48° 49.1° 43.4° - - -
2/27 3:50pm 177 9 G 15 48° 100% - - 48° 49.1° 43.4° - - -
2/27 3:40pm 200 12 G 21 48° 100% - - 48° 49.1° 43.4° - - -
2/27 3:30pm 197 8 G 17 48° 100% - - 48° 49.1° 43.4° - - -
2/27 3:20pm 201 9 G 18 48° 100% - - 48° 49.1° 43.4° - - -
2/27 3:10pm 200 12 G 20 48° 100% - - 48° 49.1° 43.4° - - -
2/27 3:00pm 197 12 G 20 48° 100% - - 48° 49.1° 43.4° - - -
2/27 2:50pm 199 12 G 23 48° 100% - - 48° 49.1° 43.4° - - -
2/27 2:40pm 205 12 G 18 48° 100% - - 48° 49.1° 43.4° - - -
2/27 2:30pm 203 14 G 25 48° 100% - - 48° 49.1° 43.4° - - -
2/27 2:20pm 204 12 G 20 48° 100% - - 48° 49.1° 43.4° - - -
2/27 2:10pm 215 12 G 19 48° 100% - - 48° 49.1° 43.4° - - -
2/27 2:00pm 201 13 G 23 48° 100% - - 48° 49.1° 43.4° - - -
2/27 1:50pm 201 15 G 26 48° 100% - - 48° 49.1° 43.4° - - -
2/27 1:40pm 207 13 G 21 48° 100% - - 48° 49.1° 43.4° - - -
2/27 1:30pm 207 10 G 19 48° 100% - - 48° 49.1° 43.4° - - -
2/27 1:20pm 196 13 G 24 49° 100% - - 49° 49.1° 43.4° - - -
2/27 1:10pm 198 13 G 21 48° 100% - - 48° 49.1° 43.4° - - -
2/27 1:00pm 198 14 G 21 49° 100% - - 49° 49.1° 43.4° - - -
2/27 12:50pm 200 15 G 23 48° 100% - - 48° 49.1° 43.4° - - -
2/27 12:40pm 203 14 G 25 48° 100% - - 48° 49.1° 43.4° - - -
2/27 12:30pm 197 14 G 25 48° 100% - - 48° 49.1° 43.4° - - -
2/27 12:20pm 188 9 G 18 48° 100% - - 48° 49.1° 43.4° - - -
2/27 12:10pm 173 5 G 9 48° 100% - - 48° 49.1° 43.4° - - -
2/27 12:00pm 233 5 G 10 48° 100% - - 48° 49.1° 43.4° - - -
2/27 11:50am 258 4 G 8 48° 100% - - 48° 49.1° 43.4° - - -
2/27 11:40am 191 7 G 11 48° 100% - - 48° 49.1° 43.4° - - -
2/27 11:30am 198 8 G 16 48° 100% - - 48° 49.1° 43.4° - - -
2/27 11:20am 196 8 G 20 48° 100% - - 48° 49.1° 43.4° - - -
2/27 11:10am 204 6 G 10 48° 100% - - 48° 49.1° 43.4° - - -
2/27 11:00am 216 8 G 12 48° 100% - - 48° 49.1° 43.4° - - -
2/27 10:50am 202 9 G 15 48° 100% - - 48° 49.1° 43.4° - - -
2/27 10:40am 191 7 G 14 48° 100% - - 48° 49.1° 43.4° - - -
2/27 10:30am 197 9 G 14 48° 100% - - 48° 49.1° 43.4° - - -
2/27 10:20am 195 7 G 13 49° 100% - - 49° 49.1° 43.4° - - -
2/27 10:10am 208 8 G 13 48° 100% - - 48° 49.1° 43.4° - - -
2/27 10:00am 223 9 G 13 48° 100% - - 48° 49.1° 43.4° - - -
2/27 9:50am 210 8 G 13 48° 100% - - 48° 49.1° 43.4° - - -
2/27 9:40am 196 8 G 13 48° 100% - - 48° 49.1° 43.4° - - -
2/27 9:30am 189 7 G 13 48° 100% - - 48° 49.1° 43.4° - - -
2/27 9:20am 197 11 G 19 49° 100% - - 49° 49.1° 43.4° - - -
2/27 9:10am 176 11 G 21 49° 100% - - 49° 49° 43.4° - - -
2/27 9:00am 175 9 G 17 49° 100% - - 49° 49° 43.4° - - -
2/27 8:50am 183 9 G 16 48° 100% - - 48° 48.9° 43.4° - - -
2/27 8:40am 188 8 G 16 48° 100% - - 48° 48.9° 43.4° - - -
2/27 8:30am 184 7 G 13 48° 100% - - 48° 48.9° 43.4° - - -
2/27 8:20am 188 5 G 9 48° 100% - - 48° 48.9° 43.4° - - -
2/27 8:10am 197 7 G 12 48° 100% - - 48° 48.9° 43.4° - - -
2/27 8:00am 201 8 G 14 48° 100% - - 48° 48.9° 43.4° - - -
2/27 7:50am 192 9 G 20 48° 100% - - 48° 48.9° 43.4° - - -
2/27 7:40am 187 6 G 11 48° 100% - - 48° 48.9° 43.4° - - -
2/27 7:30am 176 4 G 9 48° 100% - - 48° 48.9° 43.4° - - -
2/27 7:20am 175 4 G 8 48° 100% - - 48° 48.9° 43.4° - - -
2/27 7:10am 191 4 G 8 48° 100% - - 48° 48.9° 43.4° - - -
2/27 7:00am 197 7 G 12 48° 100% - - 48° 48.9° 43.4° - - -
2/27 6:50am 204 6 G 16 48° 100% - - 48° 48.7° 43.4° - - -
2/27 6:40am 203 7 G 12 48° 100% - - 48° 48.7° 43.4° - - -
2/27 6:30am 186 5 G 11 48° 100% - - 48° 48.7° 43.4° - - -
2/27 6:20am 192 6 G 10 48° 100% - - 48° 48.7° 43.4° - - -
2/27 6:10am 185 8 G 16 48° 100% - - 48° 48.7° 43.4° - - -
2/27 6:00am 186 9 G 16 48° 100% - - 48° 48.7° 43.4° - - -
2/27 5:50am 179 11 G 27 48° 100% - - 48° 48.7° 43.4° - - -
2/27 5:40am 173 8 G 16 48° 100% - - 48° 48.5° 43.4° - - -
2/27 5:30am 158 9 G 16 48° 100% - - 48° 48.5° 43.4° - - -
2/27 5:20am 169 9 G 15 48° 100% - - 48° 48.5° 43.4° - - -
2/27 5:10am 165 8 G 16 48° 100% - - 48° 48.5° 43.4° - - -
2/27 5:00am 168 11 G 24 48° 100% - - 48° 48.3° 43.4° - - -
2/27 4:50am 161 7 G 11 47° 100% - - 47° 47.9° 43.4° - - -
2/27 4:40am 155 8 G 13 47° 100% - - 47° 47.9° 43.4° - - -
2/27 4:30am 158 8 G 15 47° 100% - - 47° 47.9° 43.4° - - -
2/27 4:20am 162 9 G 17 47° 100% - - 47° 47.9° 43.4° - - -
2/27 4:10am 164 8 G 16 47° 100% - - 47° 47.7° 43.4° - - -
2/27 4:00am 156 7 G 16 47° 100% - - 47° 47.3° 43.4° - - -
2/27 3:50am 147 7 G 14 47° 100% - - 47° 47.2° 43.4° - - -
2/27 3:40am 152 6 G 13 46° 100% - - 46° 47° 43.4° - - -
2/27 3:30am 148 5 G 10 47° 100% - - 47° 47° 43.4° - - -
2/27 3:20am 166 6 G 10 47° 100% - - 47° 47° 43.4° - - -
2/27 3:10am 154 7 G 12 46° 100% - - 46° 47° 43.4° - - -
2/27 3:00am 150 7 G 10 46° 100% - - 46° 46.7° 43.4° - - -
2/27 2:50am 146 7 G 11 46° 100% - - 46° 46.5° 43.4° - - -
2/27 2:40am 141 5 G 10 46° 100% - - 46° 46.3° 43.4° - - -
2/27 2:30am 133 5 G 9 46° 100% - - 46° 46.2° 43.4° - - -
2/27 2:20am 141 4 G 7 46° 100% - - 46° 46.2° 43.4° - - -
2/27 2:10am 148 3 G 6 46° 100% - - 46° 46° 43.4° - - -
2/27 2:00am 118 4 G 6 45° 100% - - 45° 45.8° 43.4° - - -
2/27 1:50am 118 5 G 7 45° 100% - - 45° 45.7° 43.4° - - -
2/27 1:40am 112 5 G 7 45° 100% - - 45° 45.7° 43.4° - - -
2/27 1:30am 107 5 G 6 45° 100% - - 45° 45.5° 43.4° - - -
2/27 1:20am 100 4 G 5 45° 100% - - 45° 45.5° 43.4° - - -
2/27 1:10am 100 3 G 5 45° 100% - - 45° 45.5° 43.4° - - -
2/27 1:00am 123 3 G 5 45° 100% - - 45° 45.3° 43.4° - - -
2/27 12:50am 145 3 G 6 45° 100% - - 45° 45.2° 43.4° - - -
2/27 12:40am 124 4 G 7 44° 100% - - 44° 45° 43.4° - - -
2/27 12:30am 99 3 G 6 44° 100% - - 44° 44.8° 43.4° - - -
2/27 12:20am 103 3 G 5 44° 100% - - 44° 44.5° 43.4° - - -
2/27 12:10am 117 4 G 6 44° 100% - - 44° 44.1° 43.4° - - -
2/27 12:00am 119 4 G 7 43° 100% - - 43° 49.2° 39.3° - - -
2/26 11:50pm 98 5 G 8 43° 100% - - 43° 49.2° 39.3° - - -
2/26 11:40pm 89 4 G 8 43° 100% - - 43° 49.2° 39.3° - - -
2/26 11:30pm 116 3 G 4 43° 100% - - 43° 49.2° 39.3° - - -
2/26 11:20pm 122 3 G 4 43° 100% - - 43° 49.2° 39.3° - - -
2/26 11:10pm 123 3 G 4 43° 100% - - 43° 49.2° 39.3° - - -
2/26 11:00pm 101 4 G 6 43° 100% - - 43° 49.2° 39.3° - - -
2/26 10:50pm 126 4 G 7 42° 100% - - 42° 49.2° 39.3° - - -
2/26 10:40pm 123 5 G 8 42° 100% - - 42° 49.2° 39.3° - - -
2/26 10:30pm 124 5 G 7 41° 100% - - 41° 49.2° 39.3° - - -
2/26 10:20pm 109 4 G 6 42° 100% - - 42° 49.2° 39.3° - - -
2/26 10:10pm 114 4 G 6 42° 100% - - 42° 49.2° 39.3° - - -
2/26 10:00pm 117 4 G 5 42° 100% - - 42° 49.2° 39.3° - - -
2/26 9:50pm 120 4 G 7 42° 100% - - 42° 49.2° 39.3° - - -
2/26 9:40pm 110 4 G 6 42° 100% - - 42° 49.2° 39.3° - - -
2/26 9:30pm 127 3 G 4 42° 100% - - 42° 49.2° 39.3° - - -
2/26 9:20pm 179 3 G 5 42° 100% - - 42° 49.2° 39.3° - - -
2/26 9:10pm 198 3 G 5 42° 100% - - 42° 49.2° 39.3° - - -
2/26 9:00pm 232 4 G 6 42° 100% - - 42° 49.2° 39.3° - - -
2/26 8:50pm 247 2 G 5 42° 100% - - 42° 49.2° 39.3° - - -
2/26 8:40pm 255 4 G 7 42° 100% - - 42° 49.2° 39.3° - - -
2/26 8:30pm 259 5 G 9 42° 100% - - 42° 49.2° 39.3° - - -
2/26 8:20pm 260 4 G 7 42° 100% - - 42° 49.2° 39.3° - - -
2/26 8:10pm 261 4 G 7 42° 100% - - 42° 49.2° 39.3° - - -
2/26 8:00pm 245 5 G 8 43° 100% - - 43° 49.2° 39.3° - - -
2/26 7:50pm 242 5 G 9 43° 100% - - 43° 49.2° 39.3° - - -
2/26 7:40pm 228 4 G 7 43° 100% - - 43° 49.2° 39.3° - - -
2/26 7:30pm 216 5 G 10 43° 100% - - 43° 49.2° 39.3° - - -
2/26 7:20pm 221 4 G 7 43° 100% - - 43° 49.2° 39.3° - - -
2/26 7:10pm 220 7 G 10 43° 100% - - 43° 49.2° 39.3° - - -
2/26 7:00pm 219 9 G 15 43° 100% - - 43° 49.2° 39.3° - - -
2/26 6:50pm 209 2 G 8 43° 100% - - 43° 49.2° 39.3° - - -
2/26 6:40pm 218 5 G 8 43° 100% - - 43° 49.2° 39.3° - - -
2/26 6:30pm 211 4 G 7 43° 100% - - 43° 49.2° 39.3° - - -
2/26 6:20pm 221 4 G 8 43° 100% - - 43° 49.2° 39.3° - - -
2/26 6:10pm 233 5 G 9 44° 100% - - 44° 49.2° 39.3° - - -
2/26 6:00pm 227 7 G 10 44° 100% - - 44° 49.2° 39.3° - - -
2/26 5:50pm 214 8 G 12 44° 100% - - 44° 49.2° 39.3° - - -
2/26 5:40pm 227 7 G 10 45° 100% - - 45° 49.2° 39.3° - - -
2/26 5:30pm 224 5 G 9 45° 100% - - 45° 49.2° 39.3° - - -
2/26 5:20pm 220 6 G 11 45° 100% - - 45° 49.2° 39.3° - - -
2/26 5:10pm 215 7 G 11 45° 100% - - 45° 49.2° 39.3° - - -
2/26 5:00pm 216 10 G 17 45° 100% - - 45° 49.2° 39.3° - - -